Terminal Aerodrome Forecast
Issued by NWS

Home | Current Version | Previous Version | Text Only | Print | Product List | Glossary On
Versions: 1 2 3 4 5 6 7 8 9 10 11 12 13 14 15 16 17 18 19
033
FTUS46 KLOX 110001 RRA
TAFSBA
TAF
KSBA 110001Z 1100/1124 27010KT P6SM SCT015 SCT030
     FM110300 33006KT P6SM SCT015 BKN035
     FM111000 VRB03KT 3SM -DZ BR VCSH BKN007 OVC015
     FM111700 16005KT 5SM BR BKN015 OVC030
     FM112200 23008KT P6SM SCT017 BKN035=

USA.gov is the U.S. government's official web portal to all federal, state and local government web resources and services.